Time;durP1;ratioP1;P1;durP2;ratioP2;P2;SDS_P1;SDS_P2;PMS_P1;PMS_P2;Temp;Humidity;BMP_temperature;BMP_pressure;BME280_temperature;BME280_humidity;BME280_pressure;Samples;Min_cycle;Max_cycle;Signal;HPM_P1;HPM_P2
2021/05/14 00:01:38;;;;;;;12.70;3.80;;;6.00;99.90;;;;;;5025972;28;20450;-59
2021/05/14 00:04:04;;;;;;;10.57;3.37;;;6.00;99.90;;;;;;5015858;28;20550;-59
2021/05/14 00:06:29;;;;;;;9.13;3.70;;;6.00;99.90;;;;;;5011935;28;20426;-59
2021/05/14 00:08:55;;;;;;;5.73;3.70;;;6.00;99.90;;;;;;5016144;28;20946;-58
2021/05/14 00:11:21;;;;;;;9.17;3.80;;;6.10;99.90;;;;;;5027524;28;20226;-59
2021/05/14 00:13:46;;;;;;;6.37;3.83;;;6.10;99.90;;;;;;5027429;28;20242;-59
2021/05/14 00:16:12;;;;;;;9.67;3.37;;;6.10;99.90;;;;;;5028150;28;20218;-59
2021/05/14 00:18:37;;;;;;;10.30;3.83;;;6.10;99.90;;;;;;5023928;28;20172;-58
2021/05/14 00:21:04;;;;;;;7.10;4.17;;;6.10;99.90;;;;;;5027967;28;20230;-59
2021/05/14 00:23:29;;;;;;;6.50;3.43;;;6.00;99.90;;;;;;5029064;28;20660;-58
2021/05/14 00:25:55;;;;;;;11.40;3.70;;;6.00;99.90;;;;;;5026359;28;20484;-60
2021/05/14 00:28:21;;;;;;;5.90;3.37;;;6.00;99.90;;;;;;5025824;28;20199;-58
2021/05/14 00:30:46;;;;;;;11.73;3.37;;;6.00;99.90;;;;;;5029820;28;20222;-58
2021/05/14 00:33:13;;;;;;;7.70;4.13;;;6.00;99.90;;;;;;5032903;28;20257;-58
2021/05/14 00:35:38;;;;;;;10.63;4.73;;;6.00;99.90;;;;;;5023604;28;20336;-59
2021/05/14 00:38:04;;;;;;;11.33;3.77;;;6.00;99.90;;;;;;5028967;28;20493;-58
2021/05/14 00:40:30;;;;;;;8.47;3.67;;;5.90;99.90;;;;;;5030728;28;20637;-59
2021/05/14 00:42:56;;;;;;;11.90;3.33;;;5.90;99.90;;;;;;5032520;28;20192;-59
2021/05/14 00:45:22;;;;;;;8.23;3.40;;;5.90;99.90;;;;;;5019150;28;20442;-59
2021/05/14 00:47:47;;;;;;;6.40;3.60;;;5.90;99.90;;;;;;5031226;28;20230;-59
2021/05/14 00:50:13;;;;;;;5.23;3.57;;;5.90;99.90;;;;;;5030411;28;20182;-58
2021/05/14 00:52:40;;;;;;;4.77;3.63;;;5.90;99.90;;;;;;5032070;28;20214;-58
2021/05/14 00:55:06;;;;;;;4.03;3.37;;;5.90;99.90;;;;;;5027221;28;20211;-58
2021/05/14 00:57:33;;;;;;;9.03;3.67;;;5.90;99.90;;;;;;5028710;28;20817;-61
2021/05/14 00:59:59;;;;;;;6.97;3.10;;;5.80;99.90;;;;;;5023658;28;20517;-60
2021/05/14 01:02:25;;;;;;;59.10;4.53;;;5.80;99.90;;;;;;5028349;28;20557;-57
2021/05/14 01:04:50;;;;;;;6.23;3.30;;;5.70;99.90;;;;;;5022588;28;20434;-60
2021/05/14 01:07:16;;;;;;;4.97;3.57;;;5.70;99.90;;;;;;5030041;28;20672;-59
2021/05/14 01:09:42;;;;;;;3.23;2.83;;;5.70;99.90;;;;;;5029995;28;20168;-60
2021/05/14 01:12:10;;;;;;;42.83;4.60;;;5.70;99.90;;;;;;5025973;28;20742;-59
2021/05/14 01:14:35;;;;;;;22.37;4.50;;;5.70;99.90;;;;;;5029530;28;20426;-60
2021/05/14 01:17:02;;;;;;;6.87;3.67;;;5.70;99.90;;;;;;5029786;28;20427;-57
2021/05/14 01:19:27;;;;;;;6.30;3.20;;;5.70;99.90;;;;;;5026484;28;20458;-60
2021/05/14 01:21:53;;;;;;;23.00;3.70;;;5.60;99.90;;;;;;5030848;28;20710;-59
2021/05/14 01:24:19;;;;;;;43.80;3.87;;;5.60;99.90;;;;;;5029833;28;20199;-59
2021/05/14 01:26:45;;;;;;;46.07;4.57;;;5.60;99.90;;;;;;5027243;28;20430;-61
2021/05/14 01:29:12;;;;;;;52.60;4.70;;;5.60;99.90;;;;;;5027188;28;20255;-60
2021/05/14 01:31:38;;;;;;;65.97;5.00;;;5.50;99.90;;;;;;5029594;28;20175;-60
2021/05/14 01:34:07;;;;;;;52.43;4.43;;;5.50;99.90;;;;;;5032354;28;20395;-60
2021/05/14 01:36:36;;;;;;;72.67;5.03;;;5.50;99.90;;;;;;5030409;28;20410;-60
2021/05/14 01:39:11;;;;;;;12.40;3.40;;;5.40;99.90;;;;;;5021349;28;20435;-59
2021/05/14 01:41:37;;;;;;;59.63;4.10;;;5.40;99.90;;;;;;5029019;28;20507;-60
2021/05/14 01:44:03;;;;;;;63.90;5.73;;;5.40;99.90;;;;;;5028631;28;20426;-59
2021/05/14 01:46:29;;;;;;;84.70;6.97;;;5.40;99.90;;;;;;5029839;28;20423;-59
2021/05/14 01:48:55;;;;;;;113.87;5.73;;;5.40;99.90;;;;;;5021009;28;20434;-60
2021/05/14 01:51:22;;;;;;;63.33;5.30;;;5.40;99.90;;;;;;5030601;28;20207;-59
2021/05/14 01:53:48;;;;;;;76.77;4.90;;;5.40;99.90;;;;;;5021332;28;20207;-59
2021/05/14 01:56:14;;;;;;;23.63;4.23;;;5.40;99.90;;;;;;5028370;28;20788;-60
2021/05/14 01:58:40;;;;;;;27.80;4.33;;;5.40;99.90;;;;;;5029691;28;20403;-60
2021/05/14 02:01:06;;;;;;;67.37;4.80;;;5.40;99.90;;;;;;5024556;28;20426;-59
2021/05/14 02:03:32;;;;;;;110.57;6.63;;;5.40;99.90;;;;;;5025226;28;20454;-58
2021/05/14 02:05:57;;;;;;;74.03;5.67;;;5.30;99.90;;;;;;5026258;28;20195;-59
2021/05/14 02:08:23;;;;;;;95.33;5.17;;;5.30;99.90;;;;;;5030785;28;20310;-60
2021/05/14 02:10:49;;;;;;;67.03;5.00;;;5.30;99.90;;;;;;5022670;28;20248;-59
2021/05/14 02:13:15;;;;;;;26.87;4.40;;;5.30;99.90;;;;;;5025543;28;20679;-59
2021/05/14 02:15:41;;;;;;;23.30;2.87;;;5.20;99.90;;;;;;5029271;28;20690;-59
2021/05/14 02:18:06;;;;;;;61.40;4.70;;;5.20;99.90;;;;;;5031114;28;20168;-59
2021/05/14 02:20:32;;;;;;;12.13;2.87;;;5.20;99.90;;;;;;5019782;28;20195;-59
2021/05/14 02:22:59;;;;;;;13.37;2.70;;;5.10;99.90;;;;;;5029863;28;20211;-59
2021/05/14 02:25:24;;;;;;;23.77;2.87;;;5.10;99.90;;;;;;5024599;28;20442;-59
2021/05/14 02:27:50;;;;;;;22.70;3.10;;;5.10;99.90;;;;;;5017731;28;20435;-60
2021/05/14 02:30:16;;;;;;;11.47;2.90;;;5.10;99.90;;;;;;5027917;28;20179;-60
2021/05/14 02:32:42;;;;;;;33.93;3.57;;;5.00;99.90;;;;;;5034427;28;20213;-59
2021/05/14 02:35:09;;;;;;;16.63;3.00;;;5.00;99.90;;;;;;5029816;28;20466;-61
2021/05/14 02:37:35;;;;;;;17.90;2.67;;;5.00;99.90;;;;;;5018749;28;20180;-60
2021/05/14 02:40:00;;;;;;;9.07;2.53;;;4.90;99.90;;;;;;5030421;28;20415;-60
2021/05/14 02:42:26;;;;;;;26.97;2.93;;;4.90;99.90;;;;;;5028576;28;20834;-59
2021/05/14 02:44:52;;;;;;;6.43;2.03;;;4.80;99.90;;;;;;5026524;28;20391;-59
2021/05/14 02:47:17;;;;;;;10.80;2.30;;;4.80;99.90;;;;;;5024444;28;20862;-60
2021/05/14 02:49:43;;;;;;;17.33;2.40;;;4.80;99.90;;;;;;5030078;28;20655;-59
2021/05/14 02:52:09;;;;;;;33.60;2.70;;;4.80;99.90;;;;;;5027981;28;20200;-58
2021/05/14 02:54:36;;;;;;;38.60;3.20;;;4.70;99.90;;;;;;5028021;28;20643;-60
2021/05/14 02:57:03;;;;;;;29.93;2.83;;;4.70;99.90;;;;;;5027687;28;20180;-59
2021/05/14 02:59:29;;;;;;;36.37;3.30;;;4.70;99.90;;;;;;5028330;28;20922;-59
2021/05/14 03:01:57;;;;;;;29.40;2.83;;;4.60;99.90;;;;;;5021253;28;20521;-59
2021/05/14 03:04:23;;;;;;;44.77;3.73;;;4.60;99.90;;;;;;5015812;28;20176;-60
2021/05/14 03:06:49;;;;;;;55.40;3.60;;;4.60;99.90;;;;;;5009715;28;20409;-61
2021/05/14 03:09:14;;;;;;;59.90;4.27;;;4.50;99.90;;;;;;5010328;28;20168;-58
2021/05/14 03:11:40;;;;;;;65.63;4.00;;;4.50;99.90;;;;;;5025567;28;20175;-59
2021/05/14 03:14:06;;;;;;;32.63;3.00;;;4.50;99.90;;;;;;5028653;28;20168;-58
2021/05/14 03:16:35;;;;;;;50.20;4.47;;;4.50;99.90;;;;;;5029158;28;20647;-60
2021/05/14 03:19:02;;;;;;;39.50;3.20;;;4.50;99.90;;;;;;5023943;28;20819;-59
2021/05/14 03:21:30;;;;;;;13.50;2.63;;;4.40;99.90;;;;;;5028871;28;20606;-59
2021/05/14 03:23:56;;;;;;;18.43;2.80;;;4.40;99.90;;;;;;5029054;28;20477;-60
2021/05/14 03:26:21;;;;;;;40.37;3.67;;;4.50;99.90;;;;;;5024181;28;20690;-59
2021/05/14 03:28:47;;;;;;;13.70;1.97;;;4.50;99.90;;;;;;5015613;28;20173;-60
2021/05/14 03:31:13;;;;;;;20.93;2.53;;;4.50;99.90;;;;;;5029699;28;20164;-59
2021/05/14 03:33:38;;;;;;;13.30;2.40;;;4.50;99.90;;;;;;5029461;28;20203;-59
2021/05/14 03:36:05;;;;;;;37.63;2.80;;;4.50;99.90;;;;;;5024716;28;20221;-60
2021/05/14 03:38:34;;;;;;;18.23;2.70;;;4.50;99.90;;;;;;5026505;28;20271;-60
2021/05/14 03:41:17;;;;;;;20.00;2.73;;;4.50;99.90;;;;;;5027655;28;20708;-60
2021/05/14 03:43:43;;;;;;;3.63;2.20;;;4.50;99.90;;;;;;5009673;28;20431;-60
2021/05/14 03:46:09;;;;;;;84.10;4.57;;;4.50;99.90;;;;;;5018158;28;20526;-59
2021/05/14 03:48:35;;;;;;;19.60;2.80;;;4.50;99.90;;;;;;5016956;28;21020;-59
2021/05/14 03:51:00;;;;;;;92.27;5.70;;;4.50;99.90;;;;;;5016514;28;20169;-58
2021/05/14 03:53:26;;;;;;;2.23;2.10;;;4.50;99.90;;;;;;5012254;28;20200;-59
2021/05/14 03:55:52;;;;;;;5.40;2.70;;;4.40;99.90;;;;;;5027561;28;20774;-59
2021/05/14 03:58:18;;;;;;;4.67;2.20;;;4.40;99.90;;;;;;5014961;28;20446;-58
2021/05/14 04:00:46;;;;;;;18.80;2.83;;;4.40;99.90;;;;;;5024258;28;20184;-57
2021/05/14 04:03:14;;;;;;;122.17;5.40;;;4.40;99.90;;;;;;5024361;28;20462;-60
2021/05/14 04:05:40;;;;;;;51.20;3.20;;;4.40;99.90;;;;;;5021512;28;20438;-56
2021/05/14 04:08:06;;;;;;;74.63;4.03;;;4.30;99.90;;;;;;5026378;28;20455;-57
2021/05/14 04:16:04;;;;;;;4.30;2.10;;;4.20;99.90;;;;;;5030641;28;20518;-59
2021/05/14 04:18:30;;;;;;;78.97;4.70;;;4.20;99.90;;;;;;5027643;28;20480;-60
2021/05/14 04:20:56;;;;;;;15.97;3.20;;;4.20;99.90;;;;;;5030304;28;20854;-58
2021/05/14 04:23:21;;;;;;;5.50;2.10;;;4.20;99.90;;;;;;5030576;28;20351;-59
2021/05/14 04:25:47;;;;;;;11.13;2.10;;;4.20;99.90;;;;;;5023731;28;20172;-59
2021/05/14 04:28:13;;;;;;;28.23;2.70;;;4.20;99.90;;;;;;5028296;28;20261;-58
2021/05/14 04:30:39;;;;;;;31.80;2.60;;;4.20;99.90;;;;;;5034213;28;20180;-58
2021/05/14 04:33:06;;;;;;;16.27;2.53;;;4.20;99.90;;;;;;5027778;28;20226;-58
2021/05/14 04:35:32;;;;;;;6.57;2.40;;;4.20;99.90;;;;;;5028414;28;20536;-58
2021/05/14 04:37:58;;;;;;;5.37;2.40;;;4.20;99.90;;;;;;5023181;28;21107;-58
2021/05/14 04:40:24;;;;;;;13.20;1.80;;;4.20;99.90;;;;;;5025428;28;20437;-59
2021/05/14 04:42:50;;;;;;;7.23;1.73;;;4.20;99.90;;;;;;5023006;28;20461;-59
2021/05/14 04:45:16;;;;;;;35.57;2.60;;;4.20;99.90;;;;;;5025195;28;20172;-59
2021/05/14 04:47:42;;;;;;;12.03;2.00;;;4.20;99.90;;;;;;5024508;28;20885;-59
2021/05/14 04:50:08;;;;;;;24.47;2.67;;;4.20;99.90;;;;;;5022222;28;20434;-57
2021/05/14 04:52:35;;;;;;;14.47;2.63;;;4.20;99.90;;;;;;5025484;28;20196;-59
2021/05/14 04:55:01;;;;;;;21.17;2.87;;;4.30;99.90;;;;;;5018634;28;21097;-58
2021/05/14 04:57:27;;;;;;;32.90;2.40;;;4.30;99.90;;;;;;5031569;28;20483;-57
2021/05/14 04:59:53;;;;;;;39.07;3.03;;;4.30;99.90;;;;;;5026451;28;20182;-60
2021/05/14 05:02:18;;;;;;;19.17;2.13;;;4.30;99.90;;;;;;5024212;28;20294;-58
2021/05/14 05:04:44;;;;;;;13.10;2.10;;;4.30;99.90;;;;;;5020773;28;20180;-59
2021/05/14 05:07:10;;;;;;;35.10;2.80;;;4.30;99.90;;;;;;5029778;28;20178;-59
2021/05/14 05:09:36;;;;;;;14.53;2.20;;;4.30;99.90;;;;;;5020716;28;20181;-58
2021/05/14 05:12:02;;;;;;;32.63;2.50;;;4.30;99.90;;;;;;5015976;28;20445;-58
2021/05/14 05:14:30;;;;;;;93.97;5.43;;;4.30;99.90;;;;;;5026331;28;20430;-59
2021/05/14 05:16:56;;;;;;;18.03;2.43;;;4.40;99.90;;;;;;5029344;28;20426;-58
2021/05/14 05:19:22;;;;;;;53.53;3.93;;;4.40;99.90;;;;;;5027883;28;20464;-58
2021/05/14 05:21:48;;;;;;;24.20;2.70;;;4.40;99.90;;;;;;5031446;28;20215;-58
2021/05/14 05:24:14;;;;;;;13.63;2.30;;;4.40;99.90;;;;;;5031977;28;20175;-58
2021/05/14 05:26:40;;;;;;;10.50;1.93;;;4.40;99.90;;;;;;5006279;28;20427;-58
2021/05/14 05:29:05;;;;;;;31.07;2.90;;;4.50;99.90;;;;;;5025804;28;20179;-58
2021/05/14 05:31:31;;;;;;;6.67;1.97;;;4.50;99.90;;;;;;5022577;28;20190;-59
2021/05/14 05:33:56;;;;;;;14.07;2.27;;;4.60;99.90;;;;;;5042248;22;20317;-55
2021/05/14 05:36:22;;;;;;;17.90;2.10;;;4.60;99.90;;;;;;5025632;28;20440;-55
2021/05/14 05:38:50;;;;;;;12.60;1.90;;;4.60;99.90;;;;;;5027936;28;20225;-55
2021/05/14 05:41:16;;;;;;;6.93;2.00;;;4.60;99.90;;;;;;5031727;28;20172;-55
2021/05/14 05:43:43;;;;;;;1.90;1.70;;;4.70;99.90;;;;;;5015469;28;20548;-52
2021/05/14 05:46:09;;;;;;;2.00;1.80;;;4.80;99.90;;;;;;4995798;28;20422;-54
2021/05/14 05:48:34;;;;;;;4.30;1.83;;;4.80;99.90;;;;;;5008535;28;20427;-53
2021/05/14 05:51:00;;;;;;;2.37;1.90;;;4.90;99.90;;;;;;5008740;28;20426;-54
2021/05/14 05:53:26;;;;;;;5.63;1.50;;;5.00;99.90;;;;;;5000777;28;20196;-56
2021/05/14 05:55:51;;;;;;;3.30;1.60;;;5.10;99.90;;;;;;5006293;28;20184;-56
2021/05/14 05:58:17;;;;;;;5.10;1.87;;;5.20;99.90;;;;;;5005037;28;20191;-54
2021/05/14 06:00:44;;;;;;;2.33;2.10;;;5.20;99.90;;;;;;5003732;28;20207;-54
2021/05/14 06:03:11;;;;;;;7.40;2.17;;;5.30;99.90;;;;;;4996388;28;20883;-52
2021/05/14 06:05:38;;;;;;;2.63;2.00;;;5.40;99.90;;;;;;4992003;28;20779;-56
2021/05/14 06:08:04;;;;;;;5.43;2.60;;;5.50;99.90;;;;;;5005882;28;20500;-54
2021/05/14 06:10:29;;;;;;;2.53;2.13;;;5.70;99.90;;;;;;4996160;28;20514;-53
2021/05/14 06:12:55;;;;;;;2.60;2.27;;;5.80;99.90;;;;;;5000855;28;21452;-55
2021/05/14 06:15:22;;;;;;;2.37;2.17;;;5.90;99.90;;;;;;5010024;28;20537;-55
2021/05/14 06:17:49;;;;;;;2.60;2.30;;;6.00;99.90;;;;;;5008462;28;20188;-57
2021/05/14 06:20:18;;;;;;;4.57;2.53;;;6.10;99.90;;;;;;5006999;28;20416;-56
2021/05/14 06:22:43;;;;;;;3.80;2.60;;;6.10;99.90;;;;;;5008112;28;20538;-55
2021/05/14 06:25:10;;;;;;;2.27;2.00;;;6.10;99.90;;;;;;5006291;28;20551;-57
2021/05/14 06:27:35;;;;;;;2.27;2.07;;;6.20;99.90;;;;;;5004550;28;20238;-56
2021/05/14 06:30:03;;;;;;;2.27;1.77;;;6.30;99.90;;;;;;5002021;28;20510;-56
2021/05/14 06:32:29;;;;;;;2.20;2.00;;;6.40;99.90;;;;;;5017476;28;20212;-55
2021/05/14 06:34:55;;;;;;;12.83;2.47;;;6.50;99.90;;;;;;5007546;28;20506;-54
2021/05/14 06:37:21;;;;;;;2.50;2.30;;;6.50;99.90;;;;;;5003606;28;20525;-56
2021/05/14 06:39:48;;;;;;;2.80;2.30;;;6.50;99.90;;;;;;4991097;28;20428;-53
2021/05/14 06:42:13;;;;;;;2.73;2.30;;;6.60;99.90;;;;;;4989147;28;20263;-57
2021/05/14 06:44:39;;;;;;;4.43;2.37;;;6.70;99.90;;;;;;5003145;28;20836;-55
2021/05/14 06:47:05;;;;;;;2.67;2.30;;;6.70;99.90;;;;;;4999359;28;20279;-57
2021/05/14 06:49:31;;;;;;;2.03;1.93;;;6.80;99.90;;;;;;5000953;28;20637;-55
2021/05/14 06:51:56;;;;;;;2.43;2.23;;;7.00;99.90;;;;;;5006334;28;20278;-54
2021/05/14 06:54:22;;;;;;;2.80;1.80;;;7.10;99.90;;;;;;5003425;28;20201;-55
2021/05/14 06:56:48;;;;;;;1.83;1.73;;;7.30;99.90;;;;;;4991810;28;20211;-59
2021/05/14 06:59:15;;;;;;;1.90;1.77;;;7.40;99.90;;;;;;5000089;28;20177;-55
2021/05/14 07:01:40;;;;;;;2.00;1.90;;;7.50;99.90;;;;;;4992304;28;20185;-57
2021/05/14 07:04:06;;;;;;;1.80;1.70;;;7.70;99.90;;;;;;4996181;28;20455;-58
2021/05/14 07:06:32;;;;;;;2.00;1.90;;;7.90;99.90;;;;;;4999602;28;20235;-57
2021/05/14 07:08:58;;;;;;;3.00;2.13;;;8.20;99.90;;;;;;5004199;28;20435;-58
2021/05/14 07:11:23;;;;;;;3.80;2.00;;;8.40;99.90;;;;;;5015468;28;20227;-57
2021/05/14 07:13:49;;;;;;;2.30;2.10;;;8.60;99.90;;;;;;4994685;28;20558;-54
2021/05/14 07:16:15;;;;;;;3.80;2.60;;;8.90;99.90;;;;;;4992072;28;20180;-58
2021/05/14 07:18:40;;;;;;;2.37;2.17;;;9.10;99.90;;;;;;4996763;28;20236;-57
2021/05/14 07:21:06;;;;;;;2.97;1.83;;;9.40;99.90;;;;;;4998261;28;20184;-58
2021/05/14 07:23:33;;;;;;;3.70;2.13;;;9.60;99.90;;;;;;5001171;28;20643;-55
2021/05/14 07:25:58;;;;;;;7.17;2.63;;;9.80;99.90;;;;;;4996872;28;20645;-56
2021/05/14 07:28:24;;;;;;;2.60;1.80;;;10.10;99.90;;;;;;4998370;28;20509;-57
2021/05/14 07:30:50;;;;;;;2.30;2.10;;;10.40;99.90;;;;;;4997156;28;20176;-57
2021/05/14 07:33:16;;;;;;;2.83;1.87;;;10.60;99.90;;;;;;5000770;28;20204;-56
2021/05/14 07:35:41;;;;;;;2.10;1.20;;;10.90;99.90;;;;;;4999743;28;20330;-56
2021/05/14 07:38:08;;;;;;;1.87;1.53;;;11.20;98.80;;;;;;4996953;28;20191;-57
2021/05/14 07:40:33;;;;;;;1.73;1.63;;;11.40;97.50;;;;;;5005898;28;20366;-57
2021/05/14 07:42:59;;;;;;;2.17;1.93;;;11.70;96.50;;;;;;5003855;28;20470;-56
2021/05/14 07:45:25;;;;;;;2.93;2.00;;;11.90;97.00;;;;;;4992481;28;20563;-60
2021/05/14 07:47:51;;;;;;;1.50;1.40;;;12.10;96.80;;;;;;5000113;28;20680;-54
2021/05/14 07:50:16;;;;;;;2.60;1.83;;;12.30;95.00;;;;;;5001879;28;20435;-55
2021/05/14 07:52:42;;;;;;;2.23;1.80;;;12.30;92.60;;;;;;5000349;28;20196;-56
2021/05/14 07:55:08;;;;;;;4.27;1.90;;;12.20;91.60;;;;;;4990616;28;20335;-56
2021/05/14 07:57:34;;;;;;;1.80;1.60;;;12.10;91.60;;;;;;4992987;28;20330;-56
2021/05/14 07:59:59;;;;;;;4.73;1.47;;;12.00;83.00;;;;;;4998871;28;21034;-54
2021/05/14 08:02:25;;;;;;;2.47;1.20;;;11.80;87.30;;;;;;5015071;28;20553;-55
2021/05/14 08:04:51;;;;;;;1.57;1.30;;;11.70;89.20;;;;;;5000086;28;20207;-54
2021/05/14 08:07:19;;;;;;;1.40;1.20;;;11.50;90.50;;;;;;5001359;28;20185;-54
2021/05/14 08:09:45;;;;;;;2.83;1.20;;;11.50;90.20;;;;;;5004293;28;20177;-56
2021/05/14 08:12:11;;;;;;;2.60;1.03;;;11.50;84.30;;;;;;4994817;28;20447;-57
2021/05/14 08:14:36;;;;;;;8.17;1.47;;;11.40;80.80;;;;;;5003411;28;20172;-56
2021/05/14 08:17:02;;;;;;;1.90;1.40;;;11.30;78.20;;;;;;5002261;28;20256;-56
2021/05/14 08:19:29;;;;;;;1.47;1.30;;;11.20;81.30;;;;;;5006743;28;20219;-58
2021/05/14 08:21:54;;;;;;;8.10;1.50;;;11.30;83.10;;;;;;4994936;28;20451;-55
2021/05/14 08:24:20;;;;;;;3.37;1.10;;;11.50;84.30;;;;;;5003390;28;20994;-55
2021/05/14 08:26:46;;;;;;;3.67;1.40;;;11.80;84.30;;;;;;5004679;28;20594;-55
2021/05/14 08:29:12;;;;;;;2.00;1.10;;;12.00;70.20;;;;;;4997712;28;20184;-54
2021/05/14 08:31:39;;;;;;;4.30;1.50;;;12.30;68.00;;;;;;5001800;28;20279;-55
2021/05/14 08:34:09;;;;;;;2.77;1.30;;;12.40;60.70;;;;;;5000040;28;20515;-56
2021/05/14 08:36:35;;;;;;;3.13;1.40;;;12.60;60.90;;;;;;4994727;28;20531;-56
2021/05/14 08:39:01;;;;;;;2.13;1.20;;;12.80;59.80;;;;;;5003974;28;20434;-57
2021/05/14 08:41:27;;;;;;;5.63;1.47;;;12.90;60.30;;;;;;5000879;28;20556;-54
2021/05/14 08:43:53;;;;;;;3.50;1.40;;;13.00;60.40;;;;;;4991291;28;20531;-55
2021/05/14 08:46:23;;;;;;;4.57;1.70;;;13.10;58.80;;;;;;4994179;28;20180;-55
2021/05/14 08:48:56;;;;;;;3.10;1.30;;;13.10;58.50;;;;;;4994826;28;20959;-55
2021/05/14 08:51:27;;;;;;;2.37;1.40;;;12.90;56.90;;;;;;5004094;28;20550;-54
2021/05/14 08:53:58;;;;;;;2.00;1.37;;;12.80;57.00;;;;;;5000114;28;20558;-56
2021/05/14 08:56:24;;;;;;;3.03;1.27;;;12.70;57.70;;;;;;4997120;28;20419;-59
2021/05/14 08:58:49;;;;;;;2.50;1.23;;;12.70;58.30;;;;;;4985358;28;20450;-56
2021/05/14 09:01:15;;;;;;;2.40;1.27;;;12.70;59.20;;;;;;4997372;28;20301;-57
2021/05/14 09:03:59;;;;;;;1.17;1.10;;;12.80;57.30;;;;;;5003661;28;20212;-56
2021/05/14 09:06:31;;;;;;;3.07;1.20;;;12.90;56.90;;;;;;4998343;28;20173;-57
2021/05/14 09:08:59;;;;;;;6.73;1.10;;;12.90;57.80;;;;;;5006233;28;20431;-54
2021/05/14 09:11:46;;;;;;;1.50;1.20;;;12.80;56.30;;;;;;5005702;28;20927;-55
2021/05/14 09:14:33;;;;;;;2.20;1.00;;;12.80;55.80;;;;;;5000423;28;20452;-58
2021/05/14 09:17:16;;;;;;;2.47;1.40;;;12.90;58.00;;;;;;4996964;28;21017;-57
2021/05/14 09:19:47;;;;;;;4.40;1.20;;;13.10;56.50;;;;;;4986968;28;20925;-55
2021/05/14 09:22:24;;;;;;;2.47;1.30;;;13.20;55.90;;;;;;4995665;28;20477;-56
2021/05/14 09:24:58;;;;;;;1.30;1.10;;;13.50;54.30;;;;;;5009252;28;20883;-55
2021/05/14 09:27:28;;;;;;;3.17;1.57;;;13.80;55.20;;;;;;5004155;28;20428;-54
2021/05/14 09:29:57;;;;;;;2.10;1.23;;;13.90;55.10;;;;;;5005097;28;20416;-53
2021/05/14 09:32:26;;;;;;;2.27;1.13;;;13.90;53.30;;;;;;4994723;28;20455;-56
2021/05/14 09:34:54;;;;;;;1.67;1.10;;;13.80;50.90;;;;;;5005393;28;20439;-56
2021/05/14 09:37:20;;;;;;;1.60;1.30;;;13.70;50.10;;;;;;5003582;28;20432;-55
2021/05/14 09:39:46;;;;;;;4.73;1.20;;;13.50;51.80;;;;;;4994942;28;20967;-55
2021/05/14 09:42:12;;;;;;;5.77;1.33;;;13.40;51.50;;;;;;5000666;28;20462;-55
2021/05/14 09:44:38;;;;;;;1.33;1.20;;;13.30;51.50;;;;;;4999554;28;20439;-58
2021/05/14 09:47:04;;;;;;;2.00;0.93;;;13.20;50.80;;;;;;4993722;28;20165;-56
2021/05/14 09:49:32;;;;;;;3.33;1.47;;;13.00;50.60;;;;;;4990924;28;20188;-57
2021/05/14 09:51:58;;;;;;;1.13;0.90;;;12.90;51.00;;;;;;4994811;28;20447;-57
2021/05/14 09:54:34;;;;;;;2.20;1.00;;;12.80;51.20;;;;;;5009785;28;20534;-60
2021/05/14 09:59:49;;;;;;;2.00;1.30;;;12.70;51.50;;;;;;4987480;28;20447;-57
2021/05/14 10:02:29;;;;;;;3.57;1.70;;;13.00;52.80;;;;;;5003154;28;20956;-57
2021/05/14 10:04:56;;;;;;;0.93;0.90;;;13.40;51.60;;;;;;5004378;28;20429;-55
2021/05/14 10:07:25;;;;;;;2.83;1.10;;;13.90;51.50;;;;;;5002773;28;20451;-56
2021/05/14 10:09:53;;;;;;;1.73;0.90;;;14.30;50.40;;;;;;4998412;28;20435;-55
2021/05/14 10:12:20;;;;;;;1.93;1.07;;;14.60;50.90;;;;;;4995738;28;20451;-56
2021/05/14 10:14:46;;;;;;;3.10;1.43;;;14.70;50.80;;;;;;4999278;28;20443;-57
2021/05/14 10:17:12;;;;;;;2.63;1.33;;;14.70;50.00;;;;;;5001381;28;20887;-55
2021/05/14 10:19:39;;;;;;;3.63;0.90;;;14.60;47.10;;;;;;4994796;28;20455;-56
2021/05/14 10:22:06;;;;;;;2.60;1.00;;;14.40;46.60;;;;;;4997693;28;20196;-56
2021/05/14 10:24:42;;;;;;;1.30;1.00;;;14.20;47.20;;;;;;4996309;28;20439;-58
2021/05/14 10:27:27;;;;;;;2.07;1.00;;;14.10;46.90;;;;;;4996431;28;20423;-56
2021/05/14 10:29:54;;;;;;;1.70;1.10;;;14.10;48.00;;;;;;4992111;28;20538;-57
2021/05/14 10:32:45;;;;;;;2.27;0.90;;;14.10;48.50;;;;;;4997991;28;20459;-56
2021/05/14 10:35:26;;;;;;;1.80;1.20;;;14.10;47.70;;;;;;4984118;28;20466;-57
2021/05/14 10:38:04;;;;;;;2.10;0.90;;;14.10;48.50;;;;;;4976111;28;20820;-56
2021/05/14 10:40:39;;;;;;;0.90;0.90;;;14.10;48.70;;;;;;5003344;28;20423;-56
2021/05/14 10:43:06;;;;;;;3.23;1.93;;;14.10;47.50;;;;;;5005742;28;20537;-56
2021/05/14 10:45:41;;;;;;;4.90;2.00;;;14.10;47.90;;;;;;5000552;28;20533;-58
2021/05/14 10:48:18;;;;;;;2.93;1.00;;;14.30;50.00;;;;;;5003798;28;20431;-55
2021/05/14 10:50:58;;;;;;;2.63;1.30;;;14.70;52.80;;;;;;5001946;28;20948;-56
2021/05/14 10:53:47;;;;;;;1.93;1.30;;;15.10;52.50;;;;;;5002897;28;20573;-56
2021/05/14 10:56:13;;;;;;;2.10;1.20;;;15.70;52.80;;;;;;5011794;28;20462;-56
2021/05/14 10:58:51;;;;;;;1.30;1.20;;;16.20;51.70;;;;;;5002945;28;20444;-57
2021/05/14 11:01:27;;;;;;;1.50;1.10;;;16.50;48.50;;;;;;5007051;28;20208;-57
2021/05/14 11:03:53;;;;;;;2.03;0.90;;;16.40;46.40;;;;;;5005854;28;20862;-56
2021/05/14 11:06:19;;;;;;;1.60;0.80;;;16.10;46.70;;;;;;5005379;28;20443;-57
2021/05/14 11:09:09;;;;;;;3.03;1.20;;;15.80;46.70;;;;;;5006046;28;20191;-54
2021/05/14 11:11:58;;;;;;;1.90;0.93;;;15.40;48.00;;;;;;5005387;28;20493;-55
2021/05/14 11:14:25;;;;;;;1.33;0.87;;;15.10;48.50;;;;;;4990509;28;21013;-56
2021/05/14 11:16:52;;;;;;;1.37;0.90;;;14.80;45.70;;;;;;4991486;28;20419;-57
2021/05/14 11:19:20;;;;;;;2.10;1.00;;;14.60;45.40;;;;;;5004400;28;20431;-57
2021/05/14 11:21:59;;;;;;;1.43;0.90;;;14.40;46.50;;;;;;5005486;28;20463;-57
2021/05/14 11:24:31;;;;;;;1.33;0.90;;;14.30;45.30;;;;;;5007520;28;20510;-56
2021/05/14 11:27:05;;;;;;;1.73;1.00;;;14.30;46.20;;;;;;4997686;28;20423;-56
2021/05/14 11:29:36;;;;;;;1.63;0.90;;;14.30;47.00;;;;;;4996129;28;20445;-56
2021/05/14 11:32:23;;;;;;;1.10;0.80;;;14.30;45.90;;;;;;4994767;28;20795;-56
2021/05/14 11:35:00;;;;;;;4.33;2.30;;;14.30;46.30;;;;;;4997476;28;20436;-56
2021/05/14 11:37:39;;;;;;;4.40;1.10;;;14.30;45.70;;;;;;4991830;28;20497;-54
2021/05/14 11:40:18;;;;;;;2.70;1.57;;;14.40;46.50;;;;;;4988267;28;20514;-56
2021/05/14 11:42:47;;;;;;;1.53;1.13;;;14.50;46.40;;;;;;4988234;28;20456;-56
2021/05/14 11:45:36;;;;;;;3.33;1.13;;;14.80;44.90;;;;;;5002241;28;20483;-56
2021/05/14 11:48:15;;;;;;;3.50;1.30;;;15.20;45.30;;;;;;5003587;28;20450;-54
2021/05/14 11:50:43;;;;;;;5.87;1.43;;;15.70;46.80;;;;;;4997196;28;20431;-60
2021/05/14 11:53:11;;;;;;;5.13;1.30;;;16.20;48.20;;;;;;5000789;28;20717;-57
2021/05/14 11:55:38;;;;;;;4.10;1.33;;;16.70;48.60;;;;;;4992141;28;20463;-55
2021/05/14 11:58:04;;;;;;;4.63;1.30;;;17.20;49.00;;;;;;5001269;28;20592;-55
2021/05/14 12:00:38;;;;;;;1.60;1.00;;;17.50;46.40;;;;;;4997459;28;20825;-56
2021/05/14 12:03:06;;;;;;;1.10;0.90;;;17.50;45.20;;;;;;4992974;28;20497;-55
2021/05/14 12:05:32;;;;;;;1.10;1.00;;;17.30;44.40;;;;;;4997058;28;20795;-56
2021/05/14 12:08:20;;;;;;;3.60;2.47;;;16.90;43.60;;;;;;5003568;28;20424;-55
2021/05/14 12:10:51;;;;;;;1.67;1.20;;;16.50;44.00;;;;;;5001723;28;20427;-56
2021/05/14 12:13:19;;;;;;;2.22;1.02;;;16.40;45.00;;;;;;5001308;28;20466;-57
2021/05/14 12:15:46;;;;;;;2.23;1.13;;;16.70;44.80;;;;;;4995784;28;20184;-57
2021/05/14 12:18:13;;;;;;;1.93;0.80;;;17.10;44.00;;;;;;4995930;28;20493;-59
2021/05/14 12:20:42;;;;;;;2.83;1.20;;;17.50;45.50;;;;;;4995070;28;20446;-56
2021/05/14 12:23:13;;;;;;;2.00;1.07;;;18.20;44.80;;;;;;5002457;28;20579;-55
2021/05/14 12:25:48;;;;;;;3.53;1.00;;;18.30;42.50;;;;;;5001395;28;20431;-58
2021/05/14 12:28:26;;;;;;;1.10;1.00;;;18.00;41.60;;;;;;5000315;28;20434;-58
2021/05/14 12:30:52;;;;;;;15.83;1.60;;;17.50;42.70;;;;;;4996355;28;20795;-54
2021/05/14 12:33:18;;;;;;;6.50;1.20;;;17.10;43.40;;;;;;5002657;28;20473;-55
2021/05/14 12:35:55;;;;;;;1.00;0.80;;;16.70;44.10;;;;;;5002380;28;20427;-55
2021/05/14 12:38:37;;;;;;;6.07;1.13;;;16.30;44.00;;;;;;5005128;28;20176;-55
2021/05/14 12:41:03;;;;;;;2.60;1.10;;;15.80;46.60;;;;;;5000445;28;20545;-53
2021/05/14 12:43:29;;;;;;;7.60;2.70;;;15.50;49.20;;;;;;5006581;28;20852;-57
2021/05/14 12:46:07;;;;;;;4.37;1.70;;;15.20;52.10;;;;;;5005375;28;20189;-55
2021/05/14 12:48:33;;;;;;;4.10;1.20;;;14.80;60.10;;;;;;5002189;28;20230;-55
2021/05/14 12:50:58;;;;;;;2.13;1.20;;;14.30;71.20;;;;;;5000711;28;20431;-56
2021/05/14 12:53:24;;;;;;;2.83;1.23;;;13.90;75.90;;;;;;5004393;28;20669;-57
2021/05/14 12:55:50;;;;;;;1.73;1.23;;;13.60;83.30;;;;;;5005745;28;20211;-55
2021/05/14 12:58:15;;;;;;;3.90;1.60;;;13.30;84.70;;;;;;5008315;28;20263;-55
2021/05/14 13:00:41;;;;;;;2.83;1.00;;;13.10;87.10;;;;;;4999230;28;20181;-55